createdAt,value
2019-06-01T00:02:18.626Z,20.70
2019-06-01T00:06:24.218Z,21.48
2019-06-01T00:10:28.820Z,21.48
2019-06-01T00:14:33.499Z,20.60
2019-06-01T00:18:39.754Z,19.90
2019-06-01T00:22:45.490Z,18.62
2019-06-01T00:26:50.222Z,19.35
2019-06-01T00:30:55.126Z,20.12
2019-06-01T00:34:59.760Z,24.43
2019-06-01T00:39:05.849Z,22.32
2019-06-01T00:43:10.518Z,24.57
2019-06-01T00:47:15.178Z,29.32
2019-06-01T00:51:21.003Z,27.48
2019-06-01T00:55:25.696Z,28.45
2019-06-01T00:59:30.400Z,29.12
2019-06-01T01:03:35.090Z,30.02
2019-06-01T01:07:39.710Z,30.52
2019-06-01T01:11:44.901Z,30.02
2019-06-01T01:15:49.722Z,31.20
2019-06-01T01:19:54.374Z,33.15
2019-06-01T01:23:59.108Z,30.05
2019-06-01T01:28:03.923Z,30.17
2019-06-01T01:32:08.536Z,31.40
2019-06-01T01:36:13.253Z,30.52
2019-06-01T01:40:18.500Z,30.43
2019-06-01T01:44:23.120Z,30.15
2019-06-01T01:48:27.995Z,29.40
2019-06-01T01:52:32.897Z,31.40
2019-06-01T01:56:37.598Z,25.05
2019-06-01T02:00:45.547Z,28.02
2019-06-01T02:04:50.203Z,22.95
2019-06-01T02:08:55.182Z,24.57
2019-06-01T02:13:02.121Z,22.93
2019-06-01T02:17:07.187Z,22.93
2019-06-01T02:21:12.095Z,23.57
2019-06-01T02:25:17.012Z,21.95
2019-06-01T02:29:21.981Z,22.37
2019-06-01T02:33:26.620Z,23.62
2019-06-01T02:37:31.296Z,23.47
2019-06-01T02:41:35.946Z,22.05
2019-06-01T02:45:40.560Z,22.75
2019-06-01T02:49:45.212Z,24.35
2019-06-01T02:53:50.461Z,26.68
2019-06-01T02:57:55.988Z,25.08
2019-06-01T03:02:08.240Z,24.67
2019-06-01T03:06:08.407Z,25.48
2019-06-01T03:10:13.555Z,23.87
2019-06-01T03:14:20.424Z,22.67
2019-06-01T03:18:27.959Z,24.70
2019-06-01T03:22:33.678Z,25.75
2019-06-01T03:26:43.659Z,25.27
2019-06-01T03:30:48.235Z,22.58
2019-06-01T03:34:53.387Z,23.73
2019-06-01T03:38:58.240Z,23.12
2019-06-01T03:43:04.279Z,22.45
2019-06-01T03:47:09.751Z,23.40
2019-06-01T03:51:14.475Z,22.02
2019-06-01T03:55:20.114Z,20.90
2019-06-01T03:59:24.752Z,21.70
2019-06-01T04:03:29.371Z,21.70
2019-06-01T04:07:33.964Z,23.52
2019-06-01T04:11:38.575Z,23.20
2019-06-01T04:15:43.157Z,22.98
2019-06-01T04:19:47.791Z,22.82
2019-06-01T04:23:52.424Z,23.30
2019-06-01T04:27:57.067Z,23.73
2019-06-01T04:32:02.505Z,23.02
2019-06-01T04:36:07.289Z,22.45
2019-06-01T04:40:12.133Z,22.25
2019-06-01T04:44:18.425Z,21.27
2019-06-01T04:48:23.680Z,23.55
2019-06-01T04:52:28.595Z,24.07
2019-06-01T04:56:33.258Z,21.25
2019-06-01T05:00:37.987Z,24.05
2019-06-01T05:04:43.608Z,20.90
2019-06-01T05:08:48.922Z,21.45
2019-06-01T05:12:53.526Z,20.62
2019-06-01T05:16:58.144Z,21.42
2019-06-01T05:21:02.817Z,20.77
2019-06-01T05:25:09.055Z,19.82
2019-06-01T05:29:13.896Z,18.85
2019-06-01T05:33:35.665Z,17.75
2019-06-01T05:37:24.827Z,17.70
2019-06-01T05:41:29.410Z,17.90
2019-06-01T05:45:34.037Z,16.07
2019-06-01T05:49:38.662Z,16.02
2019-06-01T05:53:43.625Z,16.52
2019-06-01T05:57:48.684Z,16.70
2019-06-01T06:01:53.594Z,15.88
2019-06-01T06:05:58.258Z,15.58
2019-06-01T06:10:03.339Z,16.15
2019-06-01T06:14:08.435Z,15.58
2019-06-01T06:18:13.723Z,15.23
2019-06-01T06:22:18.499Z,15.65
2019-06-01T06:26:23.156Z,15.80
2019-06-01T06:30:27.982Z,17.52
2019-06-01T06:34:32.650Z,16.40
2019-06-01T06:38:37.352Z,15.90
2019-06-01T06:42:41.969Z,16.20
2019-06-01T06:46:46.620Z,14.13
2019-06-01T06:50:52.391Z,11.95
2019-06-01T06:54:57.066Z,13.32
2019-06-01T06:59:01.679Z,11.55
2019-06-01T07:03:06.319Z,11.57
2019-06-01T07:07:10.961Z,9.28
2019-06-01T07:11:15.603Z,8.15
2019-06-01T07:15:21.372Z,7.97
2019-06-01T07:19:26.308Z,7.15
2019-06-01T07:23:32.008Z,6.92
2019-06-01T07:27:37.211Z,8.38
2019-06-01T07:31:41.888Z,8.20
2019-06-01T07:35:46.511Z,7.47
2019-06-01T07:39:51.815Z,7.22
2019-06-01T07:43:56.484Z,6.33
2019-06-01T07:48:01.188Z,5.85
2019-06-01T07:52:12.980Z,6.58
2019-06-01T07:56:12.153Z,5.37
2019-06-01T08:00:16.910Z,5.12
2019-06-01T08:04:22.869Z,5.80
2019-06-01T08:08:29.345Z,5.03
2019-06-01T08:12:34.202Z,5.00
2019-06-01T08:16:38.785Z,4.67
2019-06-01T08:20:43.495Z,4.60
2019-06-01T08:24:48.415Z,5.22
2019-06-01T08:28:53.298Z,5.37
2019-06-01T08:32:58.063Z,4.42
2019-06-01T08:37:02.669Z,4.55
2019-06-01T08:41:07.489Z,4.45
2019-06-01T08:45:12.660Z,5.28
2019-06-01T08:49:17.338Z,4.85
2019-06-01T08:53:22.262Z,4.12
2019-06-01T08:57:28.179Z,4.30
2019-06-01T09:01:32.992Z,4.60
2019-06-01T09:05:37.698Z,4.40
2019-06-01T09:09:42.560Z,3.90
2019-06-01T09:13:47.174Z,4.10
2019-06-01T09:17:52.218Z,5.03
2019-06-01T09:21:56.820Z,4.22
2019-06-01T09:26:01.524Z,3.62
2019-06-01T09:30:07.829Z,17.07
2019-06-01T09:34:12.725Z,3.77
2019-06-01T09:38:17.439Z,4.03
2019-06-01T09:42:22.260Z,3.55
2019-06-01T09:46:27.558Z,3.75
2019-06-01T09:50:33.606Z,3.65
2019-06-01T09:54:38.188Z,2.90
2019-06-01T09:58:42.944Z,4.75
2019-06-01T10:02:47.540Z,3.95
2019-06-01T10:06:52.359Z,4.58
2019-06-01T10:10:56.971Z,3.50
2019-06-01T10:15:01.862Z,4.05
2019-06-01T10:19:07.567Z,3.37
2019-06-01T10:23:12.528Z,3.98
2019-06-01T10:27:17.478Z,4.10
2019-06-01T10:31:22.105Z,3.95
2019-06-01T10:35:26.725Z,3.98
2019-06-01T10:39:31.325Z,3.20
2019-06-01T10:43:35.947Z,3.20
2019-06-01T10:47:40.598Z,4.12
2019-06-01T10:51:45.381Z,3.83
2019-06-01T10:55:50.430Z,3.77
2019-06-01T10:59:55.121Z,3.52
2019-06-01T11:03:59.818Z,3.65
2019-06-01T11:08:04.834Z,3.33
2019-06-01T11:12:09.507Z,3.02
2019-06-01T11:16:14.263Z,3.60
2019-06-01T11:20:19.104Z,3.85
2019-06-01T11:24:25.385Z,3.02
2019-06-01T11:28:30.072Z,2.95
2019-06-01T11:32:35.913Z,3.27
2019-06-01T11:36:59.258Z,3.27
2019-06-01T11:40:47.088Z,3.80
2019-06-01T11:44:51.706Z,3.58
2019-06-01T11:48:56.327Z,7.75
2019-06-01T11:53:00.996Z,3.75
2019-06-01T11:57:05.795Z,3.47
2019-06-01T12:01:10.420Z,4.78
2019-06-01T12:05:15.588Z,2.85
2019-06-01T12:09:20.603Z,2.55
2019-06-01T12:13:25.222Z,2.90
2019-06-01T12:17:30.503Z,3.65
2019-06-01T12:21:35.182Z,2.37
2019-06-01T12:25:40.137Z,2.52
2019-06-01T12:29:45.846Z,2.87
2019-06-01T12:33:50.601Z,3.50
2019-06-01T12:38:05.496Z,3.15
2019-06-01T12:42:02.091Z,2.33
2019-06-01T12:46:07.988Z,3.08
2019-06-01T12:50:12.880Z,2.42
2019-06-01T12:54:17.643Z,4.00
2019-06-01T12:58:22.283Z,2.40
2019-06-01T13:02:26.922Z,2.25
2019-06-01T13:06:31.901Z,2.50
2019-06-01T13:10:36.562Z,2.10
2019-06-01T13:14:41.183Z,2.20
2019-06-01T13:18:45.831Z,2.12
2019-06-01T13:22:51.821Z,5.40
2019-06-01T13:26:56.678Z,2.08
2019-06-01T13:31:01.722Z,2.25
2019-06-01T13:35:06.582Z,2.33
2019-06-01T13:39:11.452Z,1.70
2019-06-01T13:43:16.131Z,1.90
2019-06-01T13:47:20.768Z,1.90
2019-06-01T13:51:27.751Z,2.65
2019-06-01T13:55:32.623Z,1.65
2019-06-01T13:59:37.230Z,2.17
2019-06-01T14:03:42.186Z,2.10
2019-06-01T14:07:47.495Z,1.98
2019-06-01T14:11:53.513Z,2.47
2019-06-01T14:15:58.227Z,7.25
2019-06-01T14:20:02.883Z,2.75
2019-06-01T14:24:07.569Z,2.37
2019-06-01T14:28:12.288Z,2.67
2019-06-01T14:32:16.946Z,2.00
2019-06-01T14:36:21.518Z,1.82
2019-06-01T14:40:26.203Z,1.77
2019-06-01T14:44:30.791Z,1.95
2019-06-01T14:48:35.511Z,1.52
2019-06-01T14:52:40.147Z,1.92
2019-06-01T14:56:45.050Z,1.50
2019-06-01T15:00:50.280Z,2.80
2019-06-01T15:04:56.382Z,15.18
2019-06-01T15:09:17.071Z,1.72
2019-06-01T15:13:07.755Z,2.08
2019-06-01T15:17:12.443Z,2.87
2019-06-01T15:21:17.056Z,1.75
2019-06-01T15:25:21.851Z,2.42
2019-06-01T15:29:26.459Z,3.83
2019-06-01T15:33:31.170Z,1.40
2019-06-01T15:37:36.066Z,1.90
2019-06-01T15:41:41.327Z,2.27
2019-06-01T15:45:45.959Z,1.90
2019-06-01T15:49:51.723Z,2.02
2019-06-01T15:53:56.934Z,1.35
2019-06-01T15:58:02.911Z,1.30
2019-06-01T16:02:08.196Z,1.32
2019-06-01T16:06:12.883Z,1.42
2019-06-01T16:10:17.609Z,1.32
2019-06-01T16:14:22.278Z,1.60
2019-06-01T16:18:27.005Z,2.10
2019-06-01T16:22:31.654Z,1.45
2019-06-01T16:26:36.269Z,1.37
2019-06-01T16:30:41.135Z,1.95
2019-06-01T16:34:46.018Z,1.57
2019-06-01T16:38:50.635Z,1.70
2019-06-01T16:42:55.382Z,1.55
2019-06-01T16:47:02.323Z,1.60
2019-06-01T16:51:06.713Z,3.08
2019-06-01T16:55:12.135Z,2.55
2019-06-01T16:59:16.824Z,1.60
2019-06-01T17:03:21.556Z,6.35
2019-06-01T17:07:26.163Z,3.20
2019-06-01T17:11:30.900Z,2.37
2019-06-01T17:15:35.896Z,2.20
2019-06-01T17:19:40.675Z,2.08
2019-06-01T17:23:47.614Z,3.20
2019-06-01T17:27:52.898Z,3.75
2019-06-01T17:32:14.329Z,2.30
2019-06-01T17:36:21.969Z,2.10
2019-06-01T17:44:33.772Z,2.35
2019-06-01T17:48:39.189Z,2.15
2019-06-01T17:52:45.168Z,1.98
2019-06-01T17:56:49.995Z,2.27
2019-06-01T18:00:54.979Z,2.80
2019-06-01T18:04:59.644Z,2.12
2019-06-01T18:09:08.049Z,2.22
2019-06-01T18:13:13.623Z,2.30
2019-06-01T18:17:27.873Z,5.87
2019-06-01T18:21:33.566Z,3.58
2019-06-01T18:25:38.514Z,5.35
2019-06-01T18:29:48.462Z,3.85
2019-06-01T18:33:53.580Z,3.95
2019-06-01T18:37:58.575Z,5.58
2019-06-01T18:42:05.972Z,6.08
2019-06-01T18:46:12.206Z,5.65
2019-06-01T18:50:17.658Z,5.62
2019-06-01T18:54:23.535Z,5.00
2019-06-01T18:58:28.319Z,8.33
2019-06-01T19:02:32.941Z,11.40
2019-06-01T19:06:37.580Z,5.03
2019-06-01T19:10:43.514Z,5.85
2019-06-01T19:14:48.222Z,10.75
2019-06-01T19:18:52.887Z,6.20
2019-06-01T19:22:57.662Z,8.18
2019-06-01T19:27:02.384Z,7.55
2019-06-01T19:31:06.998Z,9.28
2019-06-01T19:35:13.557Z,7.30
2019-06-01T19:39:18.928Z,8.90
2019-06-01T19:43:23.683Z,8.10
2019-06-01T19:47:28.358Z,8.98
2019-06-01T19:51:33.138Z,9.33
2019-06-01T19:55:37.882Z,9.08
2019-06-01T19:59:42.507Z,8.78
2019-06-01T20:03:47.189Z,11.55
2019-06-01T20:07:52.090Z,17.92
2019-06-01T20:12:01.897Z,12.40
2019-06-01T20:16:04.584Z,12.95
2019-06-01T20:20:10.735Z,13.03
2019-06-01T20:24:15.486Z,13.00
2019-06-01T20:28:21.587Z,11.85
2019-06-01T20:32:26.475Z,15.85
2019-06-01T20:36:31.154Z,13.03
2019-06-01T20:40:36.388Z,13.25
2019-06-01T20:44:41.414Z,13.08
2019-06-01T20:48:46.112Z,12.70
2019-06-01T20:52:51.128Z,13.80
2019-06-01T20:56:55.768Z,11.15
2019-06-01T21:01:00.438Z,13.65
2019-06-01T21:05:06.136Z,14.10
2019-06-01T21:09:11.783Z,14.63
2019-06-01T21:13:16.452Z,17.30
2019-06-01T21:17:22.597Z,16.05
2019-06-01T21:21:27.436Z,16.17
2019-06-01T21:25:32.044Z,18.32
2019-06-01T21:29:36.754Z,17.75
2019-06-01T21:33:41.482Z,15.68
2019-06-01T21:37:46.579Z,11.80
2019-06-01T21:41:51.174Z,12.60
2019-06-01T21:45:55.899Z,13.55
2019-06-01T21:50:01.003Z,13.03
2019-06-01T21:54:06.924Z,9.95
2019-06-01T21:58:11.499Z,8.70
2019-06-01T22:02:16.858Z,8.68
2019-06-01T22:06:21.920Z,8.85
2019-06-01T22:10:28.139Z,9.10
2019-06-01T22:14:32.895Z,9.00
2019-06-01T22:18:37.826Z,10.65
2019-06-01T22:22:42.511Z,10.32
2019-06-01T22:26:47.142Z,9.10
2019-06-01T22:30:51.816Z,10.28
2019-06-01T22:34:56.436Z,9.20
2019-06-01T22:39:01.034Z,9.23
2019-06-01T22:43:07.292Z,14.85
2019-06-01T22:47:11.934Z,14.95
2019-06-01T22:51:16.913Z,17.95
2019-06-01T22:55:22.018Z,17.25
2019-06-01T22:59:26.876Z,16.67
2019-06-01T23:03:32.131Z,10.70
2019-06-01T23:07:36.930Z,13.08
2019-06-01T23:11:41.748Z,11.93
2019-06-01T23:15:46.435Z,12.88
2019-06-01T23:19:51.380Z,13.32
2019-06-01T23:23:56.983Z,12.40
2019-06-01T23:28:01.601Z,10.35
2019-06-01T23:32:06.234Z,11.68
2019-06-01T23:36:10.915Z,15.20
2019-06-01T23:40:15.530Z,13.93
2019-06-01T23:44:20.217Z,12.07
2019-06-01T23:48:25.115Z,12.63
2019-06-01T23:52:29.807Z,13.50
2019-06-01T23:56:34.763Z,12.68
